Time;durP1;ratioP1;P1;durP2;ratioP2;P2;SDS_P1;SDS_P2;PMS_P1;PMS_P2;Temp;Humidity;BMP_temperature;BMP_pressure;BME280_temperature;BME280_humidity;BME280_pressure;Samples;Min_cycle;Max_cycle;Signal;HPM_P1;HPM_P2
2022/09/02 00:01:28;;;;;;;3.60;2.05;;;18.60;15.80;;;;;;5052448;28;20397;-71
2022/09/02 00:04:01;;;;;;;6.40;2.17;;;18.50;16.10;;;;;;5052487;28;20500;-70
2022/09/02 00:06:27;;;;;;;5.27;1.80;;;18.50;16.20;;;;;;5052450;28;20844;-72
2022/09/02 00:08:53;;;;;;;2.72;2.00;;;18.50;16.50;;;;;;5052627;28;20447;-72
2022/09/02 00:11:22;;;;;;;3.60;1.90;;;18.60;16.00;;;;;;5052455;28;20417;-71
2022/09/02 00:13:48;;;;;;;2.80;2.20;;;18.40;16.10;;;;;;5052906;28;20389;-72
2022/09/02 00:16:16;;;;;;;4.95;2.50;;;18.40;16.40;;;;;;5052218;28;20399;-72
2022/09/02 00:18:43;;;;;;;3.00;2.10;;;18.30;16.40;;;;;;5052983;28;20766;-72
2022/09/02 00:21:10;;;;;;;6.78;2.38;;;18.40;16.50;;;;;;5051380;28;20402;-71
2022/09/02 00:23:37;;;;;;;3.25;2.30;;;18.30;16.80;;;;;;5052059;28;20385;-71
2022/09/02 00:26:03;;;;;;;5.45;2.00;;;18.20;17.10;;;;;;5051444;28;20823;-71
2022/09/02 00:28:29;;;;;;;2.83;1.83;;;18.20;17.20;;;;;;5051548;28;20428;-70
2022/09/02 00:30:54;;;;;;;3.20;2.00;;;18.20;17.30;;;;;;5051063;28;20782;-72
2022/09/02 00:33:20;;;;;;;3.63;1.98;;;18.30;17.20;;;;;;5052215;28;20404;-71
2022/09/02 00:35:46;;;;;;;2.67;2.00;;;18.40;17.30;;;;;;5051485;28;20414;-72
2022/09/02 00:38:12;;;;;;;4.20;2.00;;;18.30;17.00;;;;;;5050926;28;20484;-71
2022/09/02 00:40:42;;;;;;;4.88;2.10;;;18.30;17.40;;;;;;5051301;28;20473;-71
2022/09/02 00:43:07;;;;;;;3.92;1.80;;;18.40;17.30;;;;;;5050967;28;20401;-69
2022/09/02 00:45:35;;;;;;;4.25;2.30;;;18.40;17.30;;;;;;5051133;28;20390;-73
2022/09/02 00:48:01;;;;;;;3.25;2.13;;;18.50;17.10;;;;;;5051504;28;20443;-71
2022/09/02 00:50:30;;;;;;;3.20;2.00;;;18.60;17.00;;;;;;5051760;28;20389;-71
2022/09/02 00:53:01;;;;;;;4.95;2.20;;;18.70;16.90;;;;;;5052979;28;20410;-71
2022/09/02 00:55:35;;;;;;;4.30;2.00;;;18.70;16.50;;;;;;5053547;28;20893;-71
2022/09/02 00:58:08;;;;;;;3.58;1.73;;;18.80;16.40;;;;;;5056225;28;20480;-71
2022/09/02 01:00:38;;;;;;;4.20;2.00;;;18.80;16.80;;;;;;5055537;28;20394;-71
2022/09/02 01:03:09;;;;;;;4.70;2.00;;;18.70;16.80;;;;;;5053834;28;20382;-71
2022/09/02 01:05:41;;;;;;;5.27;2.03;;;18.80;16.80;;;;;;5053793;28;20421;-71
2022/09/02 01:08:08;;;;;;;3.33;1.90;;;18.70;17.10;;;;;;5053138;28;20893;-71
2022/09/02 01:10:35;;;;;;;4.05;2.08;;;18.60;17.20;;;;;;5053771;28;20393;-71
2022/09/02 01:13:07;;;;;;;3.28;2.17;;;18.60;17.70;;;;;;5050777;28;20858;-71
2022/09/02 01:15:39;;;;;;;4.45;2.00;;;18.60;17.30;;;;;;5051464;28;20435;-71
2022/09/02 01:18:08;;;;;;;3.47;2.10;;;18.60;17.40;;;;;;5050777;28;20476;-71
2022/09/02 01:20:33;;;;;;;3.77;2.30;;;18.60;17.70;;;;;;5065812;28;20891;-70
2022/09/02 01:23:01;;;;;;;2.80;2.00;;;18.60;17.20;;;;;;5053803;28;20445;-71
2022/09/02 01:25:30;;;;;;;3.15;2.28;;;18.60;17.50;;;;;;5058612;28;20849;-71
2022/09/02 01:28:08;;;;;;;4.95;2.17;;;18.60;17.30;;;;;;5058674;28;20449;-73
2022/09/02 01:30:35;;;;;;;3.42;1.90;;;18.50;17.60;;;;;;5053359;28;20398;-71
2022/09/02 01:33:01;;;;;;;3.80;2.00;;;18.50;17.90;;;;;;5050425;28;20389;-71
2022/09/02 01:35:27;;;;;;;3.50;2.05;;;18.40;17.90;;;;;;5049225;28;20732;-71
2022/09/02 01:37:57;;;;;;;3.77;2.10;;;18.40;17.80;;;;;;5050242;28;20393;-69
2022/09/02 01:40:24;;;;;;;2.40;2.10;;;18.50;17.90;;;;;;5065870;28;20413;-70
2022/09/02 01:42:54;;;;;;;4.18;2.08;;;18.40;17.90;;;;;;5050261;28;20790;-72
2022/09/02 01:45:21;;;;;;;3.15;2.15;;;18.50;18.30;;;;;;5050508;28;20902;-71
2022/09/02 01:47:46;;;;;;;2.17;1.90;;;18.40;18.00;;;;;;5050266;28;20902;-71
2022/09/02 01:50:12;;;;;;;5.70;2.13;;;18.40;17.90;;;;;;5050312;28;20436;-71
2022/09/02 01:52:37;;;;;;;3.00;2.10;;;18.40;18.20;;;;;;5048999;28;20393;-71
2022/09/02 01:55:04;;;;;;;3.50;2.20;;;18.40;18.10;;;;;;5050138;28;20843;-71
2022/09/02 01:57:30;;;;;;;2.65;2.03;;;18.30;18.40;;;;;;5050139;28;20424;-70
2022/09/02 01:59:56;;;;;;;3.60;2.07;;;18.50;18.30;;;;;;5050050;28;20488;-70
2022/09/02 02:02:22;;;;;;;5.37;2.20;;;18.50;18.10;;;;;;5049653;28;20398;-70
2022/09/02 02:04:49;;;;;;;6.55;2.15;;;18.40;18.20;;;;;;5050219;28;20401;-71
2022/09/02 02:07:17;;;;;;;5.40;2.30;;;18.50;18.30;;;;;;5050052;28;20401;-71
2022/09/02 02:09:43;;;;;;;5.40;2.20;;;18.60;18.10;;;;;;5049880;28;20421;-71
2022/09/02 02:12:09;;;;;;;3.78;2.05;;;18.60;17.50;;;;;;5052715;28;20393;-71
2022/09/02 02:14:36;;;;;;;8.32;2.30;;;18.60;17.50;;;;;;5053924;28;20439;-71
2022/09/02 02:17:01;;;;;;;4.60;2.30;;;18.60;17.60;;;;;;5054023;28;20729;-71
2022/09/02 02:19:27;;;;;;;2.80;2.47;;;18.60;17.80;;;;;;5053724;28;20401;-70
2022/09/02 02:21:53;;;;;;;4.40;1.80;;;18.60;17.70;;;;;;5053631;28;20394;-71
2022/09/02 02:24:19;;;;;;;3.75;1.98;;;18.60;17.60;;;;;;5053668;28;20838;-71
2022/09/02 02:26:44;;;;;;;3.20;1.97;;;18.60;17.80;;;;;;5053969;28;20398;-71
2022/09/02 02:29:10;;;;;;;3.87;2.10;;;18.60;17.70;;;;;;5053492;28;20393;-70
2022/09/02 02:31:36;;;;;;;2.55;2.22;;;18.50;17.70;;;;;;5053681;28;20444;-72
2022/09/02 02:34:02;;;;;;;3.55;1.80;;;18.50;18.10;;;;;;5053713;28;20421;-71
2022/09/02 02:36:28;;;;;;;8.20;2.70;;;18.40;18.10;;;;;;5053546;28;20395;-72
2022/09/02 02:38:54;;;;;;;6.40;2.30;;;18.30;18.40;;;;;;5053509;28;20484;-72
2022/09/02 02:41:19;;;;;;;5.10;1.75;;;18.30;18.30;;;;;;5053109;28;20423;-70
2022/09/02 02:43:46;;;;;;;3.08;2.00;;;18.30;18.40;;;;;;5053827;28;20404;-71
2022/09/02 02:46:12;;;;;;;3.73;2.07;;;18.30;18.70;;;;;;5053361;28;20454;-70
2022/09/02 02:48:38;;;;;;;5.22;2.50;;;18.30;18.50;;;;;;5053712;28;20381;-70
2022/09/02 02:51:04;;;;;;;3.85;2.10;;;18.20;18.50;;;;;;5053326;28;20930;-70
2022/09/02 02:53:30;;;;;;;3.08;2.40;;;18.10;18.90;;;;;;5062468;28;20443;-72
2022/09/02 02:55:57;;;;;;;5.05;2.42;;;18.00;19.00;;;;;;5061798;28;20389;-71
2022/09/02 02:58:22;;;;;;;2.50;1.92;;;18.10;18.90;;;;;;5061588;28;20750;-71
2022/09/02 03:00:48;;;;;;;4.40;2.10;;;18.10;19.00;;;;;;5053999;28;20390;-71
2022/09/02 03:03:18;;;;;;;3.10;2.30;;;18.10;18.90;;;;;;5053208;28;20732;-70
2022/09/02 03:05:45;;;;;;;6.20;2.20;;;18.00;19.10;;;;;;5053869;28;20386;-71
2022/09/02 03:08:11;;;;;;;7.70;2.33;;;18.00;19.20;;;;;;5053250;28;20962;-70
2022/09/02 03:10:39;;;;;;;2.95;2.03;;;17.90;19.20;;;;;;5053945;28;20480;-70
2022/09/02 03:13:06;;;;;;;4.20;2.60;;;17.90;19.50;;;;;;5053172;28;20393;-70
2022/09/02 03:15:32;;;;;;;2.72;2.20;;;17.80;19.60;;;;;;5053215;28;20463;-71
2022/09/02 03:17:58;;;;;;;7.80;2.20;;;17.70;19.70;;;;;;5052976;28;20425;-69
2022/09/02 03:20:24;;;;;;;5.40;2.30;;;17.70;20.10;;;;;;5052648;28;20442;-70
2022/09/02 03:22:50;;;;;;;3.88;2.53;;;17.60;19.90;;;;;;5052355;28;20476;-70
2022/09/02 03:25:19;;;;;;;3.63;2.30;;;17.70;20.00;;;;;;5052779;28;20557;-70
2022/09/02 03:27:45;;;;;;;4.40;2.10;;;17.60;20.00;;;;;;5052349;28;20394;-72
2022/09/02 03:30:14;;;;;;;5.80;2.50;;;17.60;20.00;;;;;;5052872;28;20405;-71
2022/09/02 03:32:40;;;;;;;8.07;3.55;;;17.60;20.00;;;;;;5052814;28;20773;-71
2022/09/02 03:35:09;;;;;;;7.78;2.80;;;17.60;20.20;;;;;;5053595;28;20450;-71
2022/09/02 03:37:35;;;;;;;5.20;3.15;;;17.50;20.60;;;;;;5052924;28;20409;-71
2022/09/02 03:40:07;;;;;;;8.00;5.38;;;17.60;20.80;;;;;;5052658;28;20860;-71
2022/09/02 03:42:32;;;;;;;5.40;2.20;;;17.50;21.00;;;;;;5052773;28;20416;-70
2022/09/02 03:44:58;;;;;;;4.87;2.73;;;17.50;20.80;;;;;;5052959;28;20394;-71
2022/09/02 03:47:24;;;;;;;4.00;2.40;;;17.50;21.20;;;;;;5052534;28;20882;-71
2022/09/02 03:49:50;;;;;;;7.87;3.20;;;17.40;21.10;;;;;;5052598;28;20484;-71
2022/09/02 03:52:16;;;;;;;7.53;3.17;;;17.30;21.80;;;;;;5052831;28;20389;-70
2022/09/02 03:54:42;;;;;;;4.30;2.60;;;17.30;21.80;;;;;;5052172;28;20447;-71
2022/09/02 03:57:08;;;;;;;4.40;2.23;;;17.30;22.10;;;;;;5052159;28;20394;-71
2022/09/02 03:59:34;;;;;;;4.07;2.10;;;17.30;21.80;;;;;;5052723;28;20405;-70
2022/09/02 04:02:03;;;;;;;3.40;2.10;;;17.30;21.80;;;;;;5052008;28;20397;-70
2022/09/02 04:04:29;;;;;;;4.95;2.50;;;17.30;21.90;;;;;;5052538;28;20404;-70
2022/09/02 04:06:55;;;;;;;4.82;2.90;;;17.40;21.50;;;;;;5052043;28;20389;-70
2022/09/02 04:09:21;;;;;;;5.10;2.47;;;17.40;21.60;;;;;;5052182;28;20521;-70
2022/09/02 04:11:47;;;;;;;3.50;2.40;;;17.30;21.90;;;;;;5052052;28;20429;-70
2022/09/02 04:14:12;;;;;;;3.70;2.20;;;17.30;22.00;;;;;;5052328;28;20401;-71
2022/09/02 04:16:38;;;;;;;3.47;2.10;;;17.40;21.90;;;;;;5052415;28;20463;-70
2022/09/02 04:19:04;;;;;;;6.13;2.50;;;17.30;22.20;;;;;;5053064;28;20397;-71
2022/09/02 04:21:33;;;;;;;3.90;2.50;;;17.30;22.30;;;;;;5053563;28;20471;-71
2022/09/02 04:23:59;;;;;;;2.70;2.40;;;17.30;22.30;;;;;;5052668;28;20515;-71
2022/09/02 04:26:25;;;;;;;5.57;2.00;;;17.30;22.60;;;;;;5056562;28;20894;-70
2022/09/02 04:28:52;;;;;;;5.20;2.80;;;17.50;22.10;;;;;;5060206;28;20864;-70
2022/09/02 04:31:20;;;;;;;6.72;2.30;;;17.50;22.20;;;;;;5058855;28;20481;-71
2022/09/02 04:33:45;;;;;;;5.10;2.20;;;17.60;21.60;;;;;;5052803;28;20409;-70
2022/09/02 04:36:13;;;;;;;4.97;2.88;;;17.60;21.70;;;;;;5051271;28;20756;-69
2022/09/02 04:38:39;;;;;;;9.70;2.60;;;17.60;21.60;;;;;;5050928;28;20416;-70
2022/09/02 04:41:07;;;;;;;6.53;3.00;;;17.60;21.50;;;;;;5050992;28;20397;-72
2022/09/02 04:43:32;;;;;;;7.22;3.10;;;17.70;21.50;;;;;;5050757;28;20395;-71
2022/09/02 04:45:58;;;;;;;5.10;2.87;;;17.80;21.20;;;;;;5050935;28;20472;-73
2022/09/02 04:48:23;;;;;;;8.50;3.20;;;17.80;21.50;;;;;;5051259;28;20858;-71
2022/09/02 04:50:49;;;;;;;6.90;3.47;;;17.70;21.60;;;;;;5050701;28;20859;-72
2022/09/02 04:53:15;;;;;;;4.10;3.00;;;17.70;21.50;;;;;;5050752;28;20394;-72
2022/09/02 04:55:41;;;;;;;7.33;3.23;;;17.60;21.80;;;;;;5051447;28;20412;-71
2022/09/02 04:58:08;;;;;;;6.60;2.25;;;17.70;21.40;;;;;;5050831;28;20799;-71
2022/09/02 05:00:37;;;;;;;8.30;2.90;;;17.70;21.40;;;;;;5050984;28;20576;-71
2022/09/02 05:03:04;;;;;;;5.45;2.83;;;17.60;21.90;;;;;;5051245;28;20778;-72
2022/09/02 05:05:29;;;;;;;6.57;2.50;;;17.40;22.30;;;;;;5050716;28;20751;-70
2022/09/02 05:07:55;;;;;;;5.43;3.60;;;17.60;21.80;;;;;;5050639;28;20397;-70
2022/09/02 05:10:21;;;;;;;6.18;3.00;;;17.30;22.50;;;;;;5050500;28;20416;-70
2022/09/02 05:12:46;;;;;;;4.95;3.10;;;17.30;22.60;;;;;;5050761;28;20424;-71
2022/09/02 05:15:12;;;;;;;6.40;4.00;;;17.20;22.70;;;;;;5050384;28;20476;-71
2022/09/02 05:17:38;;;;;;;7.67;2.70;;;17.20;23.20;;;;;;5051030;28;20880;-71
2022/09/02 05:20:06;;;;;;;5.00;2.40;;;17.30;22.70;;;;;;5050834;28;20397;-71
2022/09/02 05:22:33;;;;;;;7.57;2.70;;;17.40;22.00;;;;;;5050394;28;20394;-71
2022/09/02 05:24:59;;;;;;;5.45;2.70;;;17.60;21.50;;;;;;5050460;28;20378;-72
2022/09/02 05:27:24;;;;;;;10.93;2.73;;;17.70;21.30;;;;;;5050114;28;20385;-69
2022/09/02 05:29:54;;;;;;;9.55;3.33;;;17.90;20.50;;;;;;5050036;28;20432;-71
2022/09/02 05:32:19;;;;;;;2.78;2.45;;;18.00;20.00;;;;;;5050161;28;20405;-70
2022/09/02 05:34:46;;;;;;;5.60;2.93;;;18.00;20.00;;;;;;5050302;28;20397;-71
2022/09/02 05:37:12;;;;;;;3.55;2.75;;;18.10;19.80;;;;;;5050054;28;20398;-71
2022/09/02 05:39:37;;;;;;;8.27;2.43;;;18.10;19.80;;;;;;5049348;28;20489;-71
2022/09/02 05:42:03;;;;;;;10.25;2.45;;;18.20;19.60;;;;;;5049568;28;20397;-71
2022/09/02 05:44:30;;;;;;;8.00;3.10;;;18.20;19.40;;;;;;5050210;28;20390;-72
2022/09/02 05:46:55;;;;;;;6.85;2.83;;;18.20;19.60;;;;;;5054433;28;20904;-72
2022/09/02 05:49:21;;;;;;;6.20;3.07;;;18.20;19.60;;;;;;5054057;28;20433;-72
2022/09/02 05:51:55;;;;;;;9.60;3.40;;;18.30;19.70;;;;;;5054080;28;20892;-72
2022/09/02 05:54:27;;;;;;;4.72;3.22;;;18.30;19.70;;;;;;5054360;28;20862;-71
2022/09/02 05:56:55;;;;;;;9.02;3.50;;;18.50;19.40;;;;;;5054301;28;20397;-71
2022/09/02 05:59:22;;;;;;;6.85;2.40;;;18.70;18.90;;;;;;5053997;28;20822;-71
2022/09/02 06:01:49;;;;;;;5.55;3.20;;;18.80;18.30;;;;;;5055701;28;20394;-72
2022/09/02 06:04:15;;;;;;;4.32;2.53;;;19.00;18.10;;;;;;5067073;28;20747;-72
2022/09/02 06:06:42;;;;;;;7.00;3.60;;;19.20;17.60;;;;;;5061835;28;20386;-71
2022/09/02 06:09:10;;;;;;;6.60;3.17;;;19.30;17.50;;;;;;5060640;28;20397;-72
2022/09/02 06:11:38;;;;;;;15.93;2.80;;;19.40;17.60;;;;;;5055351;28;20895;-71
2022/09/02 06:14:07;;;;;;;6.05;3.05;;;19.60;17.50;;;;;;5052783;28;20489;-71
2022/09/02 06:16:34;;;;;;;7.38;2.70;;;19.70;16.70;;;;;;5047760;28;20399;-71
2022/09/02 06:19:04;;;;;;;8.05;3.10;;;19.80;16.70;;;;;;5034357;28;20403;-72
2022/09/02 06:21:31;;;;;;;5.45;2.78;;;19.90;16.20;;;;;;5049667;28;20424;-72
2022/09/02 06:23:56;;;;;;;11.10;5.93;;;20.00;16.00;;;;;;5053960;28;20396;-73
2022/09/02 06:26:22;;;;;;;11.10;7.25;;;20.20;16.00;;;;;;5053870;28;20381;-72
2022/09/02 06:28:48;;;;;;;6.10;4.10;;;20.40;15.60;;;;;;5053168;28;20823;-70
2022/09/02 06:31:19;;;;;;;6.37;3.57;;;20.60;15.10;;;;;;5054272;28;20393;-71
2022/09/02 06:33:47;;;;;;;5.53;3.00;;;20.90;14.70;;;;;;5054735;28;20419;-74
2022/09/02 06:36:15;;;;;;;6.53;2.50;;;21.00;14.20;;;;;;5054430;28;20439;-70
2022/09/02 06:38:42;;;;;;;4.57;2.40;;;21.00;14.00;;;;;;5054366;28;20462;-69
2022/09/02 06:41:11;;;;;;;7.38;2.70;;;21.10;13.90;;;;;;5053742;28;20795;-70
2022/09/02 06:43:37;;;;;;;7.25;3.00;;;21.10;13.90;;;;;;5053505;28;20386;-70
2022/09/02 06:46:03;;;;;;;4.90;2.50;;;21.20;13.70;;;;;;5053507;28;20754;-71
2022/09/02 06:48:29;;;;;;;8.68;2.70;;;21.40;13.40;;;;;;5052850;28;20397;-71
2022/09/02 06:57:38;;;;;;;9.20;3.20;;;22.00;12.70;;;;;;5052738;28;20853;-71
2022/09/02 07:00:07;;;;;;;4.33;2.30;;;22.20;12.10;;;;;;5052556;28;20500;-72
2022/09/02 07:02:33;;;;;;;8.00;2.97;;;22.20;11.90;;;;;;5053134;28;20384;-71
2022/09/02 07:05:14;;;;;;;11.15;5.78;;;22.30;11.80;;;;;;5053466;28;20385;-71
2022/09/02 07:07:42;;;;;;;10.35;6.15;;;22.30;11.80;;;;;;5052763;28;20377;-71
2022/09/02 07:10:11;;;;;;;8.90;4.93;;;22.40;11.70;;;;;;5052884;28;20880;-71
2022/09/02 07:12:39;;;;;;;9.18;2.83;;;22.40;11.70;;;;;;5052645;28;20385;-69
2022/09/02 07:15:05;;;;;;;6.75;3.55;;;22.50;11.60;;;;;;5052167;28;20619;-69
2022/09/02 07:17:31;;;;;;;13.80;9.88;;;22.60;11.40;;;;;;5052642;28;20956;-69
2022/09/02 07:19:59;;;;;;;13.10;8.70;;;22.70;11.50;;;;;;5052176;28;20428;-70
2022/09/02 07:22:26;;;;;;;10.38;4.00;;;22.80;10.90;;;;;;5051883;28;20404;-70
2022/09/02 07:24:52;;;;;;;8.18;4.70;;;22.80;10.70;;;;;;5052767;28;20866;-70
2022/09/02 07:27:19;;;;;;;6.25;3.97;;;22.70;11.00;;;;;;5052199;28;20396;-70
2022/09/02 07:29:47;;;;;;;8.38;3.95;;;22.70;11.10;;;;;;5052597;28;20436;-70
2022/09/02 07:32:13;;;;;;;8.40;4.50;;;22.80;11.20;;;;;;5052365;28;20424;-70
2022/09/02 07:34:38;;;;;;;12.15;5.20;;;23.00;11.00;;;;;;5052434;28;20410;-71
2022/09/02 07:37:05;;;;;;;38.27;21.73;;;23.00;10.90;;;;;;5052762;28;20381;-70
2022/09/02 07:39:30;;;;;;;47.28;35.40;;;23.00;11.00;;;;;;5058440;28;20439;-70
2022/09/02 07:41:56;;;;;;;9.45;4.90;;;22.90;11.40;;;;;;5058757;28;20390;-70
2022/09/02 07:44:22;;;;;;;54.77;42.23;;;22.60;11.60;;;;;;5055842;28;20378;-70
2022/09/02 07:46:48;;;;;;;74.17;49.47;;;22.30;12.70;;;;;;5054239;28;20390;-70
2022/09/02 07:49:14;;;;;;;14.00;8.25;;;22.10;13.30;;;;;;5053099;28;20679;-71
2022/09/02 07:51:43;;;;;;;6.32;3.45;;;22.00;13.20;;;;;;5053107;28;20415;-70
2022/09/02 07:54:11;;;;;;;10.70;6.90;;;22.00;13.20;;;;;;5052701;28;20394;-70
2022/09/02 07:56:37;;;;;;;5.83;3.30;;;22.00;13.50;;;;;;5056128;28;20399;-71
2022/09/02 07:59:03;;;;;;;7.10;4.30;;;22.10;13.20;;;;;;5053569;28;20405;-71
2022/09/02 08:01:29;;;;;;;6.32;3.60;;;22.40;13.30;;;;;;5051512;28;20901;-71
2022/09/02 08:03:54;;;;;;;12.50;4.70;;;22.40;13.30;;;;;;5052735;28;20383;-71
2022/09/02 08:06:23;;;;;;;8.75;4.07;;;22.40;13.10;;;;;;5052061;28;20390;-71
2022/09/02 08:08:49;;;;;;;10.60;6.10;;;22.60;12.80;;;;;;5050761;28;20480;-71
2022/09/02 08:11:14;;;;;;;5.00;3.30;;;22.60;12.80;;;;;;5051153;28;20801;-71
2022/09/02 08:13:40;;;;;;;6.25;4.55;;;22.40;12.80;;;;;;5052319;28;20385;-71
2022/09/02 08:16:06;;;;;;;13.40;9.10;;;22.40;12.80;;;;;;5052068;28;20385;-71
2022/09/02 08:18:32;;;;;;;16.05;9.45;;;22.30;13.20;;;;;;5051730;28;20912;-72
2022/09/02 08:20:58;;;;;;;6.35;4.70;;;22.20;13.00;;;;;;5036516;28;20395;-72
2022/09/02 08:23:23;;;;;;;7.23;3.60;;;22.20;13.00;;;;;;5044970;28;20812;-72
2022/09/02 08:25:49;;;;;;;4.78;3.63;;;22.10;13.10;;;;;;5051711;28;20893;-70
2022/09/02 08:28:15;;;;;;;9.87;6.33;;;21.90;13.30;;;;;;5051787;28;20408;-71
2022/09/02 08:30:40;;;;;;;18.00;10.40;;;22.00;13.60;;;;;;5052485;28;20398;-71
2022/09/02 08:33:06;;;;;;;5.10;4.20;;;22.20;13.40;;;;;;5052132;28;20393;-71
2022/09/02 08:35:32;;;;;;;8.07;5.50;;;22.70;12.20;;;;;;5052299;28;20855;-71
2022/09/02 08:38:00;;;;;;;11.17;4.70;;;23.00;11.70;;;;;;5052143;28;20394;-71
2022/09/02 08:40:39;;;;;;;3.33;2.60;;;23.40;11.30;;;;;;5052247;28;20393;-72
2022/09/02 08:43:23;;;;;;;7.70;4.70;;;23.60;10.50;;;;;;5051741;28;20950;-71
2022/09/02 08:45:53;;;;;;;6.97;3.85;;;23.70;10.10;;;;;;5050419;28;20472;-73
2022/09/02 08:48:25;;;;;;;7.30;2.80;;;23.80;10.20;;;;;;5051020;28;20389;-72
2022/09/02 08:50:54;;;;;;;4.80;3.05;;;23.80;9.90;;;;;;5050017;28;20398;-73
2022/09/02 08:53:58;;;;;;;4.80;3.40;;;23.70;10.10;;;;;;5051329;28;20407;-76
2022/09/02 08:56:25;;;;;;;5.82;3.25;;;23.70;10.20;;;;;;5045388;28;20397;-75
2022/09/02 08:59:01;;;;;;;5.03;2.70;;;23.70;10.50;;;;;;5051627;28;20432;-75
2022/09/02 09:01:43;;;;;;;9.05;5.88;;;23.70;10.40;;;;;;5051283;28;20401;-74
2022/09/02 09:04:42;;;;;;;7.22;4.60;;;23.70;11.00;;;;;;5050191;28;20751;-71
2022/09/02 09:07:17;;;;;;;7.80;4.80;;;23.60;11.30;;;;;;5042983;28;20385;-72
2022/09/02 09:10:04;;;;;;;7.75;3.83;;;23.60;10.60;;;;;;5051131;28;20401;-73
2022/09/02 09:12:38;;;;;;;7.22;2.53;;;23.70;10.10;;;;;;5030899;28;20420;-71
2022/09/02 09:15:09;;;;;;;9.17;4.10;;;23.90;9.50;;;;;;5037468;28;20419;-71
2022/09/02 09:17:44;;;;;;;5.40;2.77;;;24.10;9.80;;;;;;5050767;28;20429;-72
2022/09/02 09:20:31;;;;;;;5.68;3.55;;;24.20;9.10;;;;;;5050424;28;20886;-72
2022/09/02 09:22:59;;;;;;;6.82;3.40;;;24.50;8.80;;;;;;5050934;28;20388;-71
2022/09/02 09:25:30;;;;;;;5.78;3.42;;;24.50;8.80;;;;;;5050832;28;20381;-71
2022/09/02 09:27:59;;;;;;;5.47;3.30;;;24.50;9.10;;;;;;5050606;28;20754;-73
2022/09/02 09:30:27;;;;;;;8.55;3.50;;;24.50;9.10;;;;;;5049905;28;20416;-71
2022/09/02 09:33:03;;;;;;;6.95;3.60;;;24.60;8.90;;;;;;5050307;28;20419;-73
2022/09/02 09:35:47;;;;;;;5.80;3.50;;;24.60;9.00;;;;;;5050610;28;20416;-70
2022/09/02 09:38:13;;;;;;;3.70;2.60;;;24.60;8.30;;;;;;5050397;28;20378;-71
2022/09/02 09:40:39;;;;;;;3.70;2.80;;;24.60;8.30;;;;;;5050643;28;20405;-70
2022/09/02 09:43:04;;;;;;;5.50;3.27;;;24.50;8.30;;;;;;5051286;28;20425;-71
2022/09/02 09:45:34;;;;;;;5.65;3.53;;;24.60;8.60;;;;;;5051318;28;20492;-72
2022/09/02 09:48:15;;;;;;;3.10;2.80;;;24.70;8.00;;;;;;5051133;28;20390;-72
2022/09/02 09:50:46;;;;;;;7.30;3.43;;;24.70;8.10;;;;;;5050037;28;20395;-72
2022/09/02 09:53:21;;;;;;;6.75;3.67;;;24.80;8.00;;;;;;5047520;28;20393;-71
2022/09/02 09:55:52;;;;;;;6.60;4.80;;;24.90;7.20;;;;;;5052656;28;20386;-71
2022/09/02 09:58:19;;;;;;;7.40;3.42;;;24.80;7.40;;;;;;5050124;28;20393;-71
2022/09/02 10:00:45;;;;;;;4.25;2.95;;;24.90;7.50;;;;;;5051791;28;20504;-71
2022/09/02 10:03:21;;;;;;;3.30;2.60;;;25.00;6.90;;;;;;5051379;28;20868;-72
2022/09/02 10:05:51;;;;;;;5.25;2.90;;;25.10;6.60;;;;;;5051316;28;20862;-72
2022/09/02 10:08:21;;;;;;;4.20;3.00;;;25.10;6.00;;;;;;5045951;28;20395;-71
2022/09/02 10:11:02;;;;;;;4.78;2.55;;;25.00;5.90;;;;;;5032071;28;20769;-71
2022/09/02 10:13:31;;;;;;;5.40;2.90;;;25.10;5.70;;;;;;5033334;28;20438;-71
2022/09/02 10:16:18;;;;;;;9.40;3.75;;;25.20;5.70;;;;;;5034763;28;20734;-71
2022/09/02 10:18:53;;;;;;;7.65;2.80;;;25.30;5.90;;;;;;5047878;28;20388;-71
2022/09/02 10:21:21;;;;;;;5.63;3.60;;;25.40;4.60;;;;;;5048885;28;20418;-72
2022/09/02 10:23:56;;;;;;;2.93;2.70;;;25.60;4.20;;;;;;5048097;28;20407;-72
2022/09/02 10:26:48;;;;;;;6.07;2.30;;;25.60;1.90;;;;;;5039791;28;20379;-72
2022/09/02 10:29:29;;;;;;;6.35;2.95;;;25.70;2.20;;;;;;5030451;28;20876;-71
2022/09/02 10:32:26;;;;;;;6.03;3.20;;;25.90;2.10;;;;;;5037028;28;20387;-73
2022/09/02 10:35:12;;;;;;;6.27;3.03;;;26.00;1.40;;;;;;5034530;28;20383;-72
2022/09/02 10:37:52;;;;;;;3.67;2.22;;;26.30;1.00;;;;;;5033739;28;20477;-71
2022/09/02 10:40:26;;;;;;;3.65;2.30;;;26.30;1.00;;;;;;5034161;28;20411;-71
2022/09/02 10:43:05;;;;;;;5.05;2.10;;;26.10;1.00;;;;;;5033956;28;20891;-72
2022/09/02 10:45:43;;;;;;;4.72;2.25;;;26.20;1.00;;;;;;5033931;28;20387;-71
2022/09/02 10:48:28;;;;;;;3.70;2.28;;;26.30;1.00;;;;;;5033773;28;20390;-72
2022/09/02 10:50:56;;;;;;;3.30;2.28;;;26.40;1.00;;;;;;5033419;28;20456;-75
2022/09/02 10:53:45;;;;;;;4.03;2.53;;;26.60;1.00;;;;;;5033794;28;20780;-73
2022/09/02 10:56:25;;;;;;;3.83;2.00;;;26.90;1.00;;;;;;5034127;28;20390;-72
2022/09/02 10:59:10;;;;;;;6.13;2.80;;;27.40;1.00;;;;;;5033727;28;20967;-72
2022/09/02 11:01:53;;;;;;;5.65;2.45;;;27.90;1.00;;;;;;5033797;28;20375;-70
2022/09/02 11:04:30;;;;;;;3.33;2.20;;;28.40;1.00;;;;;;5033856;28;20383;-71
2022/09/02 11:06:56;;;;;;;5.30;2.40;;;28.30;1.00;;;;;;5033263;28;20386;-72
2022/09/02 11:09:33;;;;;;;4.80;2.22;;;28.10;1.00;;;;;;5065795;28;20445;-71
2022/09/02 11:12:07;;;;;;;3.67;2.47;;;27.90;1.00;;;;;;5034223;28;20410;-71
2022/09/02 11:14:43;;;;;;;3.30;2.40;;;27.70;1.00;;;;;;5034942;28;20395;-71
2022/09/02 11:17:34;;;;;;;5.03;2.78;;;27.70;1.00;;;;;;5037104;28;20391;-71
2022/09/02 11:20:11;;;;;;;3.22;2.50;;;27.90;1.00;;;;;;5037730;28;20429;-71
2022/09/02 11:22:58;;;;;;;2.60;2.40;;;27.80;1.00;;;;;;5036135;28;20918;-72
2022/09/02 11:25:31;;;;;;;4.30;2.00;;;27.60;1.00;;;;;;5033454;28;20388;-71
2022/09/02 11:28:21;;;;;;;2.13;1.90;;;27.70;1.00;;;;;;5033357;28;20844;-71
2022/09/02 11:30:50;;;;;;;4.75;2.60;;;27.60;1.00;;;;;;5082439;28;20793;-72
2022/09/02 11:33:22;;;;;;;3.87;2.77;;;27.90;1.00;;;;;;5052647;28;20850;-72
2022/09/02 11:35:48;;;;;;;2.70;1.90;;;27.90;1.00;;;;;;5046019;28;20381;-73
2022/09/02 11:38:37;;;;;;;3.15;2.25;;;28.10;1.00;;;;;;5052792;28;20925;-71
2022/09/02 11:41:31;;;;;;;4.57;2.20;;;28.30;1.00;;;;;;5051800;28;20401;-71
2022/09/02 11:44:29;;;;;;;9.05;2.58;;;28.30;1.00;;;;;;5051230;28;20398;-72
2022/09/02 11:47:26;;;;;;;3.45;2.35;;;28.40;1.00;;;;;;5051874;28;20400;-72
2022/09/02 11:50:02;;;;;;;5.07;2.30;;;28.20;1.00;;;;;;5053317;28;20404;-71
2022/09/02 11:52:49;;;;;;;3.40;1.92;;;28.10;1.00;;;;;;5052262;28;20673;-71
2022/09/02 11:55:21;;;;;;;5.10;3.00;;;28.00;1.00;;;;;;5051873;28;20476;-70
2022/09/02 11:57:56;;;;;;;5.50;2.60;;;28.00;1.00;;;;;;5051547;28;21605;-71
2022/09/02 12:00:35;;;;;;;4.20;2.50;;;28.10;1.00;;;;;;5048977;28;20440;-70
2022/09/02 12:03:04;;;;;;;3.97;2.92;;;28.10;1.00;;;;;;5050697;28;20394;-70
2022/09/02 12:05:29;;;;;;;4.85;2.33;;;28.50;1.00;;;;;;5052453;28;20381;-71
2022/09/02 12:08:12;;;;;;;8.10;3.70;;;29.00;1.00;;;;;;5047254;28;20542;-70
2022/09/02 12:10:48;;;;;;;5.32;2.80;;;29.20;1.00;;;;;;5052308;28;20390;-72
2022/09/02 12:13:32;;;;;;;10.77;6.38;;;28.70;1.00;;;;;;5051556;28;20393;-72
2022/09/02 12:16:27;;;;;;;2.83;2.00;;;28.30;1.00;;;;;;5052462;28;20575;-71
2022/09/02 12:18:53;;;;;;;3.58;1.88;;;28.10;1.00;;;;;;5047405;28;20441;-73
2022/09/02 12:21:20;;;;;;;3.50;1.97;;;28.20;1.00;;;;;;5051299;28;20432;-72
2022/09/02 12:23:52;;;;;;;2.03;1.60;;;28.50;1.00;;;;;;5052188;28;20385;-72
2022/09/02 12:26:29;;;;;;;3.83;2.05;;;28.90;1.00;;;;;;5051671;28;20434;-72
2022/09/02 12:29:18;;;;;;;3.70;2.00;;;29.10;1.00;;;;;;5051406;28;20412;-72
2022/09/02 12:31:51;;;;;;;4.25;2.20;;;28.80;1.00;;;;;;5051410;28;20409;-72
2022/09/02 12:34:19;;;;;;;4.10;2.03;;;28.60;1.00;;;;;;5052577;28;20464;-72
2022/09/02 12:36:50;;;;;;;3.25;1.80;;;28.40;1.00;;;;;;5052544;28;20381;-72
2022/09/02 12:39:22;;;;;;;1.73;1.60;;;28.10;1.00;;;;;;5051794;28;20416;-72
2022/09/02 12:42:06;;;;;;;3.05;2.30;;;27.90;1.00;;;;;;5052195;28;20377;-72
2022/09/02 12:45:02;;;;;;;3.08;1.80;;;28.00;1.00;;;;;;5052035;28;20427;-72
2022/09/02 12:47:35;;;;;;;5.25;2.10;;;27.80;1.00;;;;;;5051624;28;20385;-73
2022/09/02 12:50:24;;;;;;;3.20;1.90;;;27.70;1.00;;;;;;5051284;28;20385;-72
2022/09/02 12:52:51;;;;;;;4.10;2.03;;;27.60;1.00;;;;;;5051118;28;20385;-72
2022/09/02 12:55:17;;;;;;;4.40;2.05;;;27.40;1.00;;;;;;5050406;28;20543;-72
2022/09/02 12:57:46;;;;;;;4.15;1.80;;;27.40;1.00;;;;;;5051104;28;20961;-71
2022/09/02 13:00:14;;;;;;;5.72;2.30;;;27.70;1.00;;;;;;5051162;28;20408;-71
2022/09/02 13:03:02;;;;;;;3.17;2.20;;;27.90;1.00;;;;;;5050918;28;20392;-72
2022/09/02 13:06:00;;;;;;;3.00;1.90;;;27.90;1.00;;;;;;5051241;28;20373;-72
2022/09/02 13:09:03;;;;;;;4.05;2.30;;;27.90;1.00;;;;;;5051496;28;20457;-71
2022/09/02 13:11:50;;;;;;;6.07;2.08;;;27.60;1.00;;;;;;5051331;28;20388;-72